Time;durP1;ratioP1;P1;durP2;ratioP2;P2;SDS_P1;SDS_P2;PMS_P1;PMS_P2;Temp;Humidity;BMP_temperature;BMP_pressure;BME280_temperature;BME280_humidity;BME280_pressure;Samples;Min_cycle;Max_cycle;Signal;HPM_P1;HPM_P2
2021/10/16 00:00:17;;;;;;;15.00;12.90;;;7.90;99.90;;;6.56;100.00;98341.53;5024650;28;20470;-80
2021/10/16 00:02:45;;;;;;;13.67;12.27;;;7.90;99.90;;;6.54;100.00;98330.16;5024336;28;20565;-80
2021/10/16 00:05:12;;;;;;;13.83;12.27;;;7.80;99.90;;;6.41;100.00;98331.59;5024247;28;20486;-80
2021/10/16 00:07:39;;;;;;;12.93;11.73;;;7.70;99.90;;;6.32;100.00;98338.06;5023522;28;20880;-80
2021/10/16 00:10:07;;;;;;;13.53;12.13;;;7.60;99.90;;;6.24;100.00;98342.47;5023449;28;20482;-80
2021/10/16 00:12:36;;;;;;;17.53;13.03;;;7.60;99.90;;;6.21;100.00;98326.72;5023069;28;21321;-80
2021/10/16 00:15:04;;;;;;;15.53;12.60;;;7.50;99.90;;;6.12;100.00;98327.78;5021489;28;20497;-80
2021/10/16 00:17:31;;;;;;;19.50;13.67;;;7.50;99.90;;;6.07;100.00;98324.81;5025883;28;20462;-79
2021/10/16 00:19:59;;;;;;;16.83;14.10;;;7.40;99.90;;;5.99;100.00;98320.31;5021898;28;20458;-80
2021/10/16 00:22:26;;;;;;;18.77;12.90;;;7.30;99.90;;;5.91;100.00;98328.41;5021877;28;20520;-79
2021/10/16 00:24:53;;;;;;;15.63;13.67;;;7.30;99.90;;;5.83;100.00;98326.59;5021376;28;20470;-81
2021/10/16 00:27:21;;;;;;;15.67;12.80;;;7.10;99.90;;;5.79;100.00;98336.03;5021431;28;20483;-80
2021/10/16 00:29:48;;;;;;;14.33;12.67;;;7.10;99.90;;;5.76;100.00;98331.88;5026326;28;20516;-80
2021/10/16 00:32:15;;;;;;;15.60;13.00;;;7.00;99.90;;;5.88;100.00;98326.94;5025738;28;20461;-81
2021/10/16 00:34:42;;;;;;;13.90;12.37;;;7.10;99.90;;;5.80;100.00;98340.38;5028675;28;20921;-81
2021/10/16 00:37:10;;;;;;;17.03;14.20;;;7.10;99.90;;;5.75;100.00;98348.13;5028276;28;20466;-80
2021/10/16 00:39:37;;;;;;;19.80;13.13;;;7.00;99.90;;;5.66;100.00;98334.75;5028740;28;20451;-80
2021/10/16 00:42:07;;;;;;;20.60;15.03;;;7.00;99.90;;;5.67;100.00;98347.16;5024375;28;20484;-81
2021/10/16 00:44:36;;;;;;;19.70;14.63;;;7.00;99.90;;;5.53;100.00;98342.53;5027438;28;20474;-80
2021/10/16 00:47:04;;;;;;;16.37;14.63;;;7.00;99.90;;;5.76;100.00;98350.66;5027746;28;20517;-81
2021/10/16 00:49:31;;;;;;;18.27;14.13;;;7.00;99.90;;;5.72;100.00;98349.31;5026162;28;20557;-81
2021/10/16 00:52:01;;;;;;;19.73;16.20;;;7.00;99.90;;;5.63;100.00;98348.50;5028649;28;20458;-79
2021/10/16 00:54:30;;;;;;;21.30;16.87;;;7.00;99.90;;;5.54;100.00;98344.22;5037717;28;21098;-79
2021/10/16 00:57:00;;;;;;;20.00;17.03;;;6.90;99.90;;;5.42;100.00;98341.06;5023920;28;20446;-78
2021/10/16 00:59:29;;;;;;;23.30;16.70;;;6.70;99.90;;;5.43;100.00;98350.78;5027027;28;21270;-80
2021/10/16 01:01:57;;;;;;;25.07;17.40;;;6.70;99.90;;;5.39;100.00;98355.69;5027036;28;20931;-79
2021/10/16 01:04:24;;;;;;;26.90;17.93;;;6.70;99.90;;;5.37;100.00;98352.31;5027360;28;20473;-79
2021/10/16 01:06:51;;;;;;;20.90;17.70;;;6.70;99.90;;;5.20;100.00;98321.22;5025298;28;20450;-80
2021/10/16 01:09:18;;;;;;;24.97;18.30;;;6.70;99.90;;;5.31;100.00;98347.66;5026893;28;20462;-79
2021/10/16 01:11:50;;;;;;;23.93;18.63;;;6.60;99.90;;;5.29;100.00;98352.34;5027409;28;20512;-80
2021/10/16 01:14:18;;;;;;;30.77;20.03;;;6.70;99.90;;;5.23;100.00;98337.81;5023737;28;20574;-79
2021/10/16 01:16:49;;;;;;;26.00;19.33;;;6.60;99.90;;;5.23;100.00;98345.00;5027150;28;20535;-79
2021/10/16 01:19:18;;;;;;;30.73;19.50;;;6.60;99.90;;;5.19;100.00;98344.53;5029556;28;20465;-80
2021/10/16 01:21:49;;;;;;;28.43;18.83;;;6.60;99.90;;;5.15;100.00;98339.69;5029060;28;20549;-80
2021/10/16 01:24:18;;;;;;;28.20;20.50;;;6.50;99.90;;;5.04;100.00;98317.59;5026294;28;20986;-79
2021/10/16 01:26:49;;;;;;;29.43;17.80;;;6.50;99.90;;;5.10;100.00;98333.00;5026982;28;20466;-80
2021/10/16 01:29:22;;;;;;;29.27;19.80;;;6.40;99.90;;;4.99;100.00;98333.38;5026099;28;21290;-80
2021/10/16 01:31:50;;;;;;;28.63;18.97;;;6.30;99.90;;;4.95;100.00;98342.75;5024083;28;21184;-79
2021/10/16 01:34:17;;;;;;;21.30;16.73;;;6.30;99.90;;;4.76;100.00;98323.38;5022789;28;20470;-78
2021/10/16 01:36:49;;;;;;;24.37;16.97;;;6.20;99.90;;;4.90;100.00;98348.63;5023541;28;20458;-80
2021/10/16 01:39:16;;;;;;;25.20;17.00;;;6.20;99.90;;;4.94;100.00;98346.44;5027586;28;20500;-80
2021/10/16 01:41:44;;;;;;;19.33;15.10;;;6.20;99.90;;;4.99;100.00;98324.47;5024006;28;20467;-81
2021/10/16 01:44:12;;;;;;;19.77;15.57;;;6.30;99.90;;;5.12;100.00;98338.16;5022850;28;21182;-78
2021/10/16 01:46:39;;;;;;;16.63;13.87;;;6.40;99.90;;;5.03;100.00;98332.00;5026751;28;20471;-78
2021/10/16 01:49:11;;;;;;;19.13;14.30;;;6.30;99.90;;;5.08;100.00;98343.06;5023447;28;20514;-79
2021/10/16 01:51:38;;;;;;;19.30;14.67;;;6.30;99.90;;;4.96;100.00;98333.72;5025039;28;20454;-79
2021/10/16 01:54:07;;;;;;;15.47;13.87;;;6.30;99.90;;;4.96;100.00;98339.88;5024821;28;20482;-79
2021/10/16 01:56:35;;;;;;;15.17;13.57;;;6.30;99.90;;;4.89;100.00;98327.34;5024185;28;20543;-79
2021/10/16 01:59:16;;;;;;;17.77;14.33;;;6.20;99.90;;;4.86;100.00;98327.72;5021394;28;20527;-80
2021/10/16 02:01:44;;;;;;;15.87;13.37;;;6.20;99.90;;;4.73;100.00;98334.41;5024095;28;20482;-80
2021/10/16 02:04:12;;;;;;;15.60;12.97;;;6.10;99.90;;;4.73;100.00;98330.91;5022726;28;20532;-80
2021/10/16 02:06:39;;;;;;;18.67;13.83;;;6.00;99.90;;;4.61;100.00;98331.28;5022355;28;20508;-80
2021/10/16 02:09:08;;;;;;;16.00;12.93;;;5.90;99.90;;;4.53;100.00;98329.44;5025377;28;20565;-81
2021/10/16 02:11:35;;;;;;;15.27;12.43;;;5.80;99.90;;;4.59;100.00;98337.78;5023623;28;20544;-80
2021/10/16 02:14:04;;;;;;;14.00;12.50;;;5.90;99.90;;;4.68;100.00;98326.06;5035401;28;20464;-79
2021/10/16 02:16:32;;;;;;;16.37;13.07;;;5.90;99.90;;;4.80;100.00;98339.94;5024487;28;20465;-80
2021/10/16 02:18:59;;;;;;;13.50;11.63;;;6.00;99.90;;;4.71;100.00;98341.78;5023055;28;20533;-80
2021/10/16 02:21:27;;;;;;;14.17;12.70;;;6.00;99.90;;;4.52;100.00;98333.13;5016210;28;20462;-79
2021/10/16 02:23:55;;;;;;;17.57;13.33;;;5.90;99.90;;;4.29;100.00;98337.47;5024122;28;20498;-79
2021/10/16 02:26:23;;;;;;;15.60;13.80;;;5.70;99.90;;;4.07;100.00;98318.41;5025355;28;20468;-78
2021/10/16 02:28:50;;;;;;;15.70;12.23;;;5.60;99.90;;;4.19;100.00;98341.16;5024909;28;20578;-79
2021/10/16 02:31:17;;;;;;;16.23;13.10;;;5.50;99.90;;;4.10;100.00;98344.81;5025863;28;20487;-78
2021/10/16 02:33:44;;;;;;;14.80;13.10;;;5.50;99.90;;;4.13;100.00;98336.47;5023711;28;20458;-78
2021/10/16 02:36:11;;;;;;;15.60;13.90;;;5.50;99.90;;;3.94;100.00;98345.63;5027311;28;20474;-77
2021/10/16 02:38:38;;;;;;;14.03;12.53;;;5.30;99.90;;;4.02;100.00;98342.97;5026806;28;20542;-78
2021/10/16 02:41:05;;;;;;;16.23;13.20;;;5.30;99.90;;;3.96;100.00;98344.47;5025706;28;20458;-78
2021/10/16 02:43:34;;;;;;;15.10;13.10;;;5.30;99.90;;;3.86;100.00;98343.78;5023293;28;21161;-78
2021/10/16 02:46:01;;;;;;;15.13;12.77;;;5.20;99.90;;;3.75;100.00;98341.44;5025445;28;20474;-79
2021/10/16 02:48:28;;;;;;;14.47;12.97;;;5.10;99.90;;;3.66;100.00;98344.06;5025303;28;21261;-78
2021/10/16 02:50:54;;;;;;;15.50;11.80;;;5.10;99.90;;;3.72;100.00;98345.25;5027917;28;20493;-80
2021/10/16 02:53:21;;;;;;;13.50;12.10;;;5.10;99.90;;;3.75;100.00;98341.44;5025920;28;20454;-80
2021/10/16 02:55:48;;;;;;;14.97;13.37;;;5.10;99.90;;;3.83;100.00;98352.97;5025318;28;21064;-80
2021/10/16 02:58:15;;;;;;;14.60;12.40;;;5.10;99.90;;;3.79;100.00;98343.63;5039946;28;20585;-79
2021/10/16 03:00:43;;;;;;;14.73;11.73;;;5.10;99.90;;;3.97;100.00;98356.81;5024600;28;20475;-79
2021/10/16 03:03:11;;;;;;;14.33;11.67;;;5.20;99.90;;;4.03;100.00;98354.53;5026596;28;20924;-80
2021/10/16 03:05:38;;;;;;;14.80;12.00;;;5.30;99.90;;;4.12;100.00;98353.50;5024550;28;20474;-79
2021/10/16 03:08:05;;;;;;;12.40;11.20;;;5.40;99.90;;;4.00;100.00;98354.81;5022805;28;20476;-80
2021/10/16 03:10:32;;;;;;;12.67;11.37;;;5.40;99.90;;;3.94;100.00;98357.16;5025009;28;20474;-82
2021/10/16 03:12:59;;;;;;;13.30;11.47;;;5.30;99.90;;;4.07;100.00;98363.88;5025809;28;20455;-80
2021/10/16 03:15:26;;;;;;;12.07;10.87;;;5.40;99.90;;;4.14;100.00;98370.22;5024785;28;20564;-81
2021/10/16 03:17:54;;;;;;;12.53;10.80;;;5.40;99.90;;;3.96;100.00;98370.38;5024620;28;20462;-81
2021/10/16 03:20:22;;;;;;;12.20;10.90;;;5.40;99.90;;;3.92;100.00;98374.38;5025160;28;20512;-81
2021/10/16 03:22:49;;;;;;;12.07;10.80;;;5.30;99.90;;;3.75;100.00;98373.50;5027482;28;20498;-79
2021/10/16 03:25:16;;;;;;;11.47;10.33;;;5.20;99.90;;;3.68;100.00;98374.13;5027385;28;20573;-79
2021/10/16 03:27:43;;;;;;;13.20;10.80;;;5.10;99.90;;;3.62;100.00;98382.81;5026607;28;20465;-79
2021/10/16 03:30:10;;;;;;;11.77;9.80;;;5.10;99.90;;;3.63;100.00;98373.78;5022046;28;20501;-79
2021/10/16 03:32:37;;;;;;;10.50;9.50;;;5.00;99.90;;;3.60;100.00;98375.94;5027183;28;20446;-80
2021/10/16 03:35:06;;;;;;;11.43;10.30;;;5.00;99.90;;;3.43;100.00;98380.41;5020230;28;20525;-81
2021/10/16 03:37:33;;;;;;;9.80;8.80;;;4.90;99.90;;;3.35;100.00;98375.88;5027238;28;20466;-80
2021/10/16 03:40:00;;;;;;;9.80;8.90;;;4.70;99.90;;;3.33;100.00;98381.34;5022595;28;20446;-80
2021/10/16 03:42:27;;;;;;;9.87;8.33;;;4.70;99.90;;;3.39;100.00;98375.38;5023878;28;20470;-80
2021/10/16 03:44:54;;;;;;;10.10;8.80;;;4.80;99.90;;;3.34;100.00;98385.69;5021947;28;20564;-80
2021/10/16 03:47:21;;;;;;;11.70;10.43;;;4.80;99.90;;;3.34;100.00;98392.91;5024835;28;20450;-81
2021/10/16 03:49:48;;;;;;;17.33;10.97;;;4.80;99.90;;;3.30;100.00;98381.69;5023275;28;20594;-80
2021/10/16 03:52:16;;;;;;;12.93;10.10;;;4.70;99.90;;;3.27;100.00;98387.34;5026824;28;20623;-79
2021/10/16 03:54:43;;;;;;;17.97;13.00;;;4.70;99.90;;;3.23;100.00;98377.97;5024855;28;20494;-79
2021/10/16 03:57:10;;;;;;;15.20;12.20;;;4.70;99.90;;;3.28;100.00;98385.50;5026931;28;20540;-81
2021/10/16 03:59:41;;;;;;;18.33;11.83;;;4.70;99.90;;;3.31;100.00;98383.34;5033020;28;20859;-80
2021/10/16 04:02:09;;;;;;;17.80;12.30;;;4.70;99.90;;;3.34;100.00;98384.88;5026251;28;20451;-80
2021/10/16 04:04:36;;;;;;;15.90;11.80;;;4.70;99.90;;;3.32;100.00;98384.19;5024950;28;20518;-80
2021/10/16 04:07:04;;;;;;;11.70;10.50;;;4.70;99.90;;;3.22;100.00;98376.28;5023115;28;20458;-80
2021/10/16 04:09:32;;;;;;;15.77;10.13;;;4.70;99.90;;;3.25;100.00;98378.63;5022477;28;20570;-80
2021/10/16 04:12:00;;;;;;;12.83;11.20;;;4.70;99.90;;;3.25;100.00;98382.16;5026830;28;20451;-79
2021/10/16 04:14:27;;;;;;;14.93;11.30;;;4.70;99.90;;;3.22;100.00;98389.66;5023566;28;20482;-80
2021/10/16 04:16:54;;;;;;;13.60;10.97;;;4.70;99.90;;;3.11;100.00;98377.41;5021734;28;21042;-79
2021/10/16 04:19:21;;;;;;;12.47;10.60;;;4.60;99.90;;;3.11;100.00;98390.75;5024120;28;20477;-81
2021/10/16 04:21:48;;;;;;;11.60;9.60;;;4.60;99.90;;;3.04;100.00;98377.22;5025906;28;20462;-81
2021/10/16 04:24:15;;;;;;;14.77;10.63;;;4.50;99.90;;;2.99;100.00;98390.19;5025903;28;20470;-79
2021/10/16 04:26:43;;;;;;;14.10;11.13;;;4.50;99.90;;;2.82;100.00;98390.09;5025971;28;20498;-78
2021/10/16 04:29:10;;;;;;;10.80;8.97;;;4.40;99.90;;;2.72;100.00;98386.69;5023624;28;20561;-81
2021/10/16 04:31:37;;;;;;;11.60;10.43;;;4.30;99.90;;;2.64;100.00;98391.94;5022715;28;20490;-79
2021/10/16 04:34:06;;;;;;;11.50;10.13;;;4.10;99.90;;;2.51;100.00;98392.34;5020582;28;20466;-79
2021/10/16 04:36:33;;;;;;;13.00;10.53;;;4.00;99.90;;;2.62;100.00;98391.28;5022389;28;20454;-79
2021/10/16 04:39:00;;;;;;;9.70;8.73;;;4.00;99.90;;;2.57;100.00;98396.25;5018975;28;20951;-78
2021/10/16 04:41:28;;;;;;;11.23;8.60;;;4.00;99.90;;;2.57;100.00;98398.91;5024198;28;20454;-81
2021/10/16 04:43:57;;;;;;;12.00;9.43;;;3.90;99.90;;;2.64;100.00;98398.13;5025831;28;20554;-80
2021/10/16 04:46:25;;;;;;;13.00;9.80;;;4.00;99.90;;;2.59;100.00;98400.44;5021377;28;20488;-80
2021/10/16 04:48:52;;;;;;;11.70;8.90;;;4.00;99.90;;;2.32;100.00;98393.34;5024009;28;20851;-80
2021/10/16 04:51:19;;;;;;;12.80;10.20;;;3.90;99.90;;;2.15;100.00;98398.53;5022252;28;20537;-79
2021/10/16 04:53:47;;;;;;;9.90;8.90;;;3.70;99.90;;;2.26;100.00;98402.81;5024141;28;20486;-78
2021/10/16 04:56:14;;;;;;;10.03;9.13;;;3.70;99.90;;;2.20;100.00;98398.94;5023412;28;20496;-78
2021/10/16 04:58:41;;;;;;;10.07;8.23;;;3.70;99.90;;;2.14;100.00;98404.03;5041888;28;20486;-82
2021/10/16 05:01:09;;;;;;;9.27;8.27;;;3.60;99.90;;;2.06;100.00;98402.97;5022122;28;20451;-79
2021/10/16 05:03:36;;;;;;;10.40;9.37;;;3.50;99.90;;;2.03;100.00;98399.75;5046536;28;20476;-81
2021/10/16 05:06:03;;;;;;;10.70;9.60;;;3.50;99.90;;;1.98;100.00;98402.91;5019495;28;21300;-78
2021/10/16 05:08:30;;;;;;;11.70;8.83;;;3.50;99.90;;;1.97;100.00;98401.19;5042217;28;20553;-77
2021/10/16 05:10:58;;;;;;;10.53;9.30;;;3.50;99.90;;;1.96;100.00;98411.03;5024211;28;20568;-77
2021/10/16 05:13:25;;;;;;;10.30;9.30;;;3.40;99.90;;;1.98;100.00;98409.06;5024657;28;20538;-77
2021/10/16 05:15:52;;;;;;;11.33;8.97;;;3.40;99.90;;;1.89;100.00;98412.59;5024240;28;20585;-79
2021/10/16 05:18:23;;;;;;;9.73;8.17;;;3.40;99.90;;;1.85;100.00;98405.91;5026344;28;20974;-78
2021/10/16 05:20:50;;;;;;;10.37;7.93;;;3.30;99.90;;;1.87;100.00;98403.94;5029596;28;21017;-79
2021/10/16 05:23:18;;;;;;;8.90;8.10;;;3.30;99.90;;;1.85;100.00;98411.22;5024863;28;20576;-78
2021/10/16 05:25:46;;;;;;;9.13;8.20;;;3.30;99.90;;;1.86;100.00;98410.25;5028565;28;21255;-79
2021/10/16 05:28:13;;;;;;;11.23;8.37;;;3.30;99.90;;;1.75;100.00;98415.81;5028365;28;20458;-79
2021/10/16 05:30:40;;;;;;;11.20;8.90;;;3.30;99.90;;;1.67;100.00;98417.38;5026252;28;20505;-79
2021/10/16 05:33:07;;;;;;;9.93;8.40;;;3.20;99.90;;;1.62;100.00;98422.31;5026755;28;20492;-79
2021/10/16 05:35:38;;;;;;;9.03;7.90;;;3.10;99.90;;;1.69;100.00;98423.38;5025861;28;20477;-78
2021/10/16 05:38:05;;;;;;;10.57;8.50;;;3.10;99.90;;;1.76;100.00;98417.47;5027092;28;20504;-80
2021/10/16 05:40:32;;;;;;;10.20;8.77;;;3.20;99.90;;;1.78;100.00;98423.50;5023932;28;20513;-78
2021/10/16 05:42:59;;;;;;;9.60;8.70;;;3.20;99.90;;;1.59;100.00;98430.56;5027470;28;20557;-79
2021/10/16 05:45:26;;;;;;;10.37;9.17;;;3.10;99.90;;;1.54;100.00;98425.72;5022730;28;21057;-78
2021/10/16 05:47:53;;;;;;;11.13;9.60;;;3.10;99.90;;;1.55;100.00;98427.41;5020379;28;20577;-78
2021/10/16 05:50:20;;;;;;;13.67;9.37;;;3.10;99.90;;;1.68;100.00;98429.69;5021951;28;20571;-78
2021/10/16 05:52:48;;;;;;;10.70;8.40;;;3.10;99.90;;;1.69;100.00;98430.56;5020937;28;20907;-78
2021/10/16 05:55:15;;;;;;;10.40;8.63;;;3.10;99.90;;;1.69;100.00;98436.72;5021294;28;21189;-78
2021/10/16 05:57:42;;;;;;;9.00;8.03;;;3.30;99.90;;;1.86;100.00;98441.41;5024371;28;20494;-75
2021/10/16 06:00:11;;;;;;;11.47;8.93;;;3.30;99.90;;;1.94;100.00;98442.31;5022723;28;20553;-76
2021/10/16 06:02:39;;;;;;;9.73;8.73;;;3.30;99.90;;;2.11;100.00;98439.84;5025669;28;20458;-78
2021/10/16 06:05:08;;;;;;;11.53;9.00;;;3.50;99.90;;;2.20;100.00;98449.59;5023676;28;20474;-77
2021/10/16 06:07:35;;;;;;;10.67;9.00;;;3.60;99.90;;;2.15;100.00;98446.53;5022467;28;20557;-78
2021/10/16 06:10:05;;;;;;;17.07;8.97;;;3.60;99.90;;;2.00;100.00;98454.22;5024357;28;20556;-74
2021/10/16 06:12:32;;;;;;;16.70;9.57;;;3.50;99.90;;;1.93;100.00;98453.97;5026911;28;20494;-81
2021/10/16 06:14:59;;;;;;;14.57;9.80;;;3.40;99.90;;;2.10;100.00;98454.16;5018955;28;20994;-82
2021/10/16 06:17:26;;;;;;;15.97;10.93;;;3.50;99.90;;;2.20;100.00;98460.28;5039997;28;20577;-76
2021/10/16 06:19:53;;;;;;;12.37;9.43;;;3.60;99.90;;;2.19;100.00;98463.06;5023499;28;20507;-77
2021/10/16 06:22:20;;;;;;;14.67;10.20;;;3.60;99.90;;;2.28;100.00;98464.00;5018557;28;20573;-81
2021/10/16 06:24:47;;;;;;;19.87;11.60;;;3.70;99.90;;;2.50;100.00;98462.72;5023355;28;20482;-80
2021/10/16 06:27:16;;;;;;;18.50;9.37;;;3.90;99.90;;;2.54;100.00;98472.94;5022943;28;20832;-77
2021/10/16 06:29:43;;;;;;;14.17;9.67;;;4.00;99.90;;;2.73;100.00;98463.06;5043203;28;20825;-86
2021/10/16 06:32:10;;;;;;;20.23;10.10;;;4.10;99.90;;;2.76;100.00;98459.28;5030617;28;20458;-87
2021/10/16 06:34:38;;;;;;;17.23;9.63;;;4.20;99.90;;;2.70;100.00;98466.06;5028138;28;20566;-85
2021/10/16 06:37:05;;;;;;;14.53;9.40;;;4.20;99.90;;;2.77;100.00;98471.63;5032888;28;20955;-87
2021/10/16 06:39:32;;;;;;;16.90;9.70;;;4.20;99.90;;;2.81;100.00;98473.81;5028628;28;20580;-74
2021/10/16 06:42:00;;;;;;;12.57;9.40;;;4.30;99.90;;;3.27;100.00;98472.81;5024874;28;20466;-75
2021/10/16 06:44:28;;;;;;;27.23;9.83;;;4.60;99.90;;;3.37;100.00;98480.72;5020778;28;20574;-74
2021/10/16 06:46:55;;;;;;;23.87;8.57;;;4.70;99.90;;;3.57;100.00;98488.50;5015991;28;20458;-72
2021/10/16 06:49:22;;;;;;;36.30;11.70;;;4.90;99.90;;;3.45;100.00;98479.94;5011242;28;20556;-72
2021/10/16 06:51:49;;;;;;;13.53;8.90;;;4.90;99.90;;;3.66;100.00;98483.03;5022153;28;20489;-74
2021/10/16 06:54:17;;;;;;;15.53;8.40;;;5.00;99.90;;;3.79;100.00;98484.44;5022570;28;20574;-76
2021/10/16 06:56:44;;;;;;;12.23;8.90;;;5.10;99.90;;;3.77;100.00;98489.09;5014738;28;21183;-72
2021/10/16 06:59:12;;;;;;;11.77;8.70;;;5.20;99.90;;;3.94;100.00;98504.22;5025095;28;20490;-70
2021/10/16 07:01:40;;;;;;;11.17;8.50;;;5.30;99.90;;;3.91;100.00;98485.81;5014881;28;20458;-71
2021/10/16 07:04:07;;;;;;;12.03;8.47;;;5.40;99.90;;;4.05;100.00;98497.72;5021568;28;20504;-71
2021/10/16 07:06:34;;;;;;;10.37;8.00;;;5.40;99.90;;;4.08;100.00;98508.09;5021563;28;20470;-71
2021/10/16 07:09:04;;;;;;;28.00;9.80;;;5.50;99.90;;;3.84;100.00;98506.16;5023090;28;20776;-70
2021/10/16 07:11:31;;;;;;;19.90;8.27;;;5.40;99.80;;;3.75;100.00;98505.28;5022567;28;20471;-70
2021/10/16 07:13:58;;;;;;;52.60;10.80;;;5.20;99.90;;;3.52;100.00;98507.69;5018181;28;20450;-68
2021/10/16 07:16:26;;;;;;;35.27;9.97;;;5.20;99.10;;;3.58;100.00;98507.06;5016463;28;20930;-70
2021/10/16 07:18:54;;;;;;;68.13;12.97;;;5.10;99.90;;;3.51;100.00;98511.34;5019353;28;20477;-70
2021/10/16 07:21:21;;;;;;;49.17;10.50;;;5.00;99.90;;;3.68;100.00;98517.63;5026069;28;20446;-68
2021/10/16 07:23:48;;;;;;;14.10;8.30;;;5.10;99.90;;;3.60;100.00;98510.41;5019233;28;20466;-69
2021/10/16 07:26:15;;;;;;;29.80;9.20;;;5.00;99.90;;;3.94;100.00;98512.25;5032082;28;20528;-69
2021/10/16 07:28:44;;;;;;;13.97;7.90;;;5.30;99.90;;;4.40;100.00;98508.38;5022288;28;20458;-84
2021/10/16 07:31:11;;;;;;;13.20;8.37;;;5.50;99.90;;;4.38;100.00;98524.56;5019838;28;20563;-75
2021/10/16 07:33:38;;;;;;;12.57;8.57;;;5.70;99.10;;;4.29;100.00;98530.06;5022142;28;20458;-75
2021/10/16 07:36:06;;;;;;;25.90;10.10;;;5.70;98.20;;;4.21;100.00;98530.88;5022073;28;20544;-76
2021/10/16 07:38:34;;;;;;;13.67;8.77;;;5.70;98.30;;;4.46;100.00;98521.09;5020799;28;20482;-75
2021/10/16 07:41:01;;;;;;;16.30;8.90;;;5.80;98.70;;;4.15;100.00;98524.34;5016224;28;20825;-76
2021/10/16 07:43:28;;;;;;;12.47;8.90;;;5.60;97.80;;;4.13;100.00;98525.53;5020068;28;20490;-75
2021/10/16 07:45:55;;;;;;;43.17;11.53;;;5.50;96.90;;;4.10;100.00;98532.88;5022129;28;20525;-68
2021/10/16 07:48:23;;;;;;;39.40;10.67;;;5.50;97.70;;;4.30;100.00;98521.03;5022706;28;20931;-69
2021/10/16 07:50:52;;;;;;;9.50;8.53;;;5.60;99.90;;;4.54;100.00;98528.28;5023704;28;20511;-73
2021/10/16 07:53:20;;;;;;;11.93;9.53;;;5.70;99.90;;;4.81;100.00;98512.94;5021147;28;20466;-74
2021/10/16 07:55:49;;;;;;;10.00;9.00;;;6.10;99.90;;;5.13;99.90;98537.25;5020940;28;20560;-73
2021/10/16 07:58:16;;;;;;;11.23;9.10;;;6.30;99.60;;;5.35;97.38;98525.81;5019552;28;21920;-74
2021/10/16 08:00:43;;;;;;;11.17;8.47;;;6.60;95.40;;;5.19;98.69;98528.53;5017982;28;20456;-74
2021/10/16 08:03:11;;;;;;;12.20;9.67;;;6.60;95.00;;;5.51;96.83;98538.38;5020227;28;20458;-74
2021/10/16 08:05:38;;;;;;;9.63;8.67;;;6.80;94.50;;;5.62;96.35;98531.81;5032113;28;20478;-74
2021/10/16 08:08:05;;;;;;;9.37;8.40;;;6.80;93.50;;;5.68;95.37;98524.94;5021678;28;20466;-73
2021/10/16 08:10:34;;;;;;;9.90;8.27;;;7.00;92.90;;;5.94;93.64;98530.06;5019497;28;20482;-73
2021/10/16 08:13:01;;;;;;;8.60;7.80;;;7.20;91.30;;;5.95;93.23;98531.72;5016644;28;20470;-73
2021/10/16 08:15:28;;;;;;;17.33;13.03;;;7.20;90.90;;;6.00;94.24;98536.56;5023383;28;20481;-74
2021/10/16 08:17:56;;;;;;;33.77;21.00;;;7.20;91.30;;;6.06;93.50;98537.75;5023981;28;20466;-70
2021/10/16 08:20:23;;;;;;;9.50;8.50;;;7.30;91.30;;;5.95;94.28;98539.78;5021537;28;20509;-74
2021/10/16 08:22:50;;;;;;;11.70;9.37;;;7.20;91.10;;;5.96;94.11;98533.41;5024473;28;20558;-72
2021/10/16 08:25:17;;;;;;;10.63;9.60;;;7.30;91.50;;;5.85;94.66;98524.88;5019034;28;20568;-74
2021/10/16 08:27:47;;;;;;;11.50;8.80;;;7.30;90.50;;;5.81;94.47;98529.75;5019226;28;20519;-74
2021/10/16 08:30:17;;;;;;;11.23;9.30;;;7.30;90.60;;;5.92;95.71;98525.88;5020207;28;20538;-74
2021/10/16 08:32:44;;;;;;;10.70;9.60;;;7.20;91.80;;;6.25;93.74;98515.06;5013032;28;20469;-74
2021/10/16 08:35:11;;;;;;;11.93;8.20;;;7.50;91.50;;;6.13;92.67;98522.63;5019964;28;20502;-74
2021/10/16 08:37:38;;;;;;;10.87;9.77;;;7.50;90.40;;;6.12;93.63;98522.81;5017788;28;20549;-73
2021/10/16 08:40:07;;;;;;;10.00;9.00;;;7.40;90.80;;;6.23;92.15;98525.94;5021043;28;20470;-73
2021/10/16 08:42:35;;;;;;;10.57;9.47;;;7.50;89.70;;;6.21;92.76;98525.28;5019347;28;20469;-73
2021/10/16 08:45:05;;;;;;;9.27;8.37;;;7.50;90.20;;;6.29;93.17;98520.88;5020048;28;21082;-73
2021/10/16 08:47:35;;;;;;;11.80;9.30;;;7.60;90.80;;;6.34;92.88;98523.88;5022856;28;20466;-73
2021/10/16 08:50:05;;;;;;;10.97;9.13;;;7.70;90.30;;;6.27;92.41;98525.59;5022162;28;20516;-73
2021/10/16 08:52:32;;;;;;;10.73;9.40;;;7.60;90.10;;;6.32;92.91;98525.91;5024331;28;20470;-72
2021/10/16 08:55:00;;;;;;;10.63;9.53;;;7.60;90.10;;;6.31;92.70;98521.56;5021384;28;21011;-72
2021/10/16 08:57:31;;;;;;;12.13;8.93;;;7.60;89.60;;;6.41;91.76;98535.59;5027770;28;20970;-73
2021/10/16 08:59:59;;;;;;;11.03;9.40;;;7.70;88.60;;;6.38;92.32;98517.16;5028669;28;20454;-68
2021/10/16 09:02:37;;;;;;;9.53;8.43;;;7.70;89.80;;;6.29;93.27;98519.03;5027233;28;20454;-68
2021/10/16 09:05:12;;;;;;;9.40;8.50;;;7.70;90.10;;;6.39;92.76;98521.50;5027067;28;20509;-68
2021/10/16 09:07:40;;;;;;;9.20;8.10;;;7.70;90.50;;;6.49;92.06;98515.91;5024074;28;20492;-70
2021/10/16 09:10:22;;;;;;;11.07;8.20;;;7.80;89.40;;;6.53;92.44;98528.00;5025198;28;20892;-65
2021/10/16 09:12:51;;;;;;;8.07;7.33;;;7.90;89.30;;;6.44;92.08;98529.03;5019277;28;20501;-65
2021/10/16 09:15:23;;;;;;;10.10;9.00;;;7.80;89.00;;;6.53;92.21;98522.63;5018814;28;20467;-69
2021/10/16 09:18:06;;;;;;;10.47;8.57;;;7.80;89.80;;;6.55;92.81;98517.06;5026983;28;20466;-70
2021/10/16 09:20:35;;;;;;;9.10;8.10;;;7.90;90.00;;;6.65;92.28;98520.34;5023860;28;20556;-65
2021/10/16 09:23:07;;;;;;;9.03;8.10;;;8.00;89.60;;;6.71;92.86;98525.00;5020799;28;20468;-65
2021/10/16 09:25:35;;;;;;;9.77;8.77;;;8.00;89.90;;;6.72;92.99;98526.66;5020336;28;20565;-68
2021/10/16 09:28:15;;;;;;;9.83;8.87;;;8.10;90.10;;;6.91;91.21;98513.81;5024000;28;21073;-85
2021/10/16 09:30:45;;;;;;;9.87;9.03;;;8.20;88.90;;;7.10;90.03;98517.84;5022547;28;20494;-78
2021/10/16 09:33:14;;;;;;;10.10;8.70;;;8.30;87.70;;;7.15;90.67;98519.97;5024360;28;20466;-77
2021/10/16 09:35:41;;;;;;;9.10;8.27;;;8.40;87.70;;;7.11;90.82;98529.44;5024513;28;21029;-76
2021/10/16 09:38:09;;;;;;;13.20;9.40;;;8.40;87.60;;;7.06;90.42;98522.75;5025018;28;20936;-78
2021/10/16 09:40:38;;;;;;;10.50;9.30;;;8.40;86.90;;;7.18;89.84;98525.00;5020101;28;20469;-76
2021/10/16 09:43:18;;;;;;;10.10;8.83;;;8.50;86.40;;;7.23;88.13;98519.94;5021563;28;21041;-77
2021/10/16 09:45:46;;;;;;;9.30;8.40;;;8.50;85.30;;;7.40;88.58;98520.59;5024758;28;20481;-77
2021/10/16 09:48:33;;;;;;;10.33;9.43;;;8.60;85.60;;;7.45;88.34;98517.38;5024191;28;20466;-76
2021/10/16 09:51:11;;;;;;;9.87;8.97;;;8.70;85.30;;;7.51;88.62;98519.34;5023943;28;20557;-75
2021/10/16 09:53:47;;;;;;;9.17;8.30;;;8.70;85.40;;;7.47;87.84;98513.47;5016014;28;20473;-76
2021/10/16 09:56:15;;;;;;;9.20;8.40;;;8.80;84.50;;;7.53;88.90;98516.44;5016563;28;20466;-76
2021/10/16 09:58:44;;;;;;;9.87;8.87;;;8.80;85.70;;;7.60;88.54;98512.84;5026548;28;21252;-77
2021/10/16 10:01:12;;;;;;;9.20;8.30;;;8.90;85.50;;;7.56;87.75;98506.16;5025802;28;20526;-79
2021/10/16 10:03:44;;;;;;;11.33;9.13;;;8.90;84.60;;;7.74;87.63;98510.34;5015505;28;20549;-77
2021/10/16 10:06:17;;;;;;;8.60;7.80;;;8.90;85.40;;;7.90;87.32;98518.22;5030043;28;21061;-79
2021/10/16 10:08:44;;;;;;;8.27;7.47;;;9.10;84.90;;;8.07;86.17;98509.97;5022382;28;20477;-80
2021/10/16 10:11:13;;;;;;;8.40;7.50;;;9.30;84.10;;;8.16;85.58;98516.91;5023710;28;20482;-77
2021/10/16 10:13:41;;;;;;;7.83;7.03;;;9.40;83.10;;;8.22;86.28;98508.09;5025955;28;20770;-77
2021/10/16 10:16:08;;;;;;;7.73;7.00;;;9.50;83.30;;;8.36;84.56;98508.25;5025272;28;21086;-77
2021/10/16 10:21:24;;;;;;;8.43;7.40;;;9.60;82.00;;;8.47;84.06;98512.31;5027594;28;20672;-78
2021/10/16 10:23:58;;;;;;;8.10;7.40;;;9.70;81.50;;;8.56;82.59;98510.34;5023907;28;20554;-76